createdAt,value
2019-03-31T00:00:23.074Z,70.26
2019-03-31T00:01:22.777Z,70.47
2019-03-31T00:02:22.764Z,70.87
2019-03-31T00:03:22.853Z,71.18
2019-03-31T00:04:22.753Z,72.11
2019-03-31T00:05:22.735Z,72.52
2019-03-31T00:06:22.788Z,72.82
2019-03-31T00:07:22.780Z,72.61
2019-03-31T00:08:22.810Z,73.33
2019-03-31T00:09:22.840Z,73.33
2019-03-31T00:10:22.681Z,72.41
2019-03-31T00:11:22.667Z,72.03
2019-03-31T00:12:22.662Z,72.52
2019-03-31T00:13:22.652Z,72.61
2019-03-31T00:14:22.671Z,72.65
2019-03-31T00:15:22.753Z,71.80
2019-03-31T00:16:22.620Z,70.87
2019-03-31T00:17:22.600Z,70.87
2019-03-31T00:18:22.596Z,70.98
2019-03-31T00:19:22.586Z,70.87
2019-03-31T00:20:22.578Z,70.47
2019-03-31T00:21:23.766Z,70.57
2019-03-31T00:22:22.762Z,70.67
2019-03-31T00:23:22.631Z,70.16
2019-03-31T00:24:22.533Z,70.33
2019-03-31T00:25:22.721Z,70.43
2019-03-31T00:26:22.713Z,70.33
2019-03-31T00:27:22.504Z,69.61
2019-03-31T00:28:22.506Z,69.51
2019-03-31T00:29:22.562Z,69.31
2019-03-31T00:30:22.472Z,69.48
2019-03-31T00:31:22.854Z,69.17
2019-03-31T00:32:23.428Z,68.97
2019-03-31T00:33:23.906Z,69.48
2019-03-31T00:34:22.427Z,69.89
2019-03-31T00:35:22.417Z,69.17
2019-03-31T00:36:22.396Z,69.58
2019-03-31T00:37:22.596Z,69.17
2019-03-31T00:38:22.481Z,69.48
2019-03-31T00:39:22.401Z,69.48
2019-03-31T00:40:22.703Z,69.58
2019-03-31T00:41:22.392Z,69.58
2019-03-31T00:42:22.562Z,69.48
2019-03-31T00:43:22.705Z,69.89
2019-03-31T00:44:22.417Z,69.61
2019-03-31T00:45:22.377Z,69.99
2019-03-31T00:46:22.373Z,70.12
2019-03-31T00:47:22.356Z,69.71
2019-03-31T00:48:22.352Z,69.61
2019-03-31T00:49:22.455Z,69.61
2019-03-31T00:50:22.253Z,70.57
2019-03-31T00:51:22.334Z,70.47
2019-03-31T00:52:22.226Z,70.98
2019-03-31T00:53:23.587Z,70.87
2019-03-31T00:54:22.378Z,71.18
2019-03-31T00:55:22.245Z,70.87
2019-03-31T00:56:22.183Z,70.57
2019-03-31T00:57:22.209Z,71.28
2019-03-31T00:58:22.160Z,70.67
2019-03-31T00:59:22.167Z,71.18
2019-03-31T01:00:22.370Z,71.18
2019-03-31T01:01:35.479Z,70.77
2019-03-31T01:02:23.153Z,70.98
2019-03-31T01:03:22.135Z,71.49
2019-03-31T01:04:22.143Z,71.52
2019-03-31T01:05:22.080Z,71.52
2019-03-31T01:06:22.221Z,72.03
2019-03-31T01:07:22.084Z,72.75
2019-03-31T01:08:22.058Z,73.27
2019-03-31T01:09:22.133Z,72.55
2019-03-31T01:10:22.028Z,73.10
2019-03-31T01:11:22.017Z,72.89
2019-03-31T01:12:22.423Z,72.99
2019-03-31T01:13:21.991Z,73.30
2019-03-31T01:14:21.991Z,72.89
2019-03-31T01:15:22.017Z,73.10
2019-03-31T01:16:22.293Z,73.19
2019-03-31T01:17:22.392Z,73.61
2019-03-31T01:18:21.951Z,72.99
2019-03-31T01:19:21.929Z,72.86
2019-03-31T01:20:21.933Z,73.16
2019-03-31T01:21:21.902Z,72.44
2019-03-31T01:22:21.897Z,72.34
2019-03-31T01:23:22.168Z,71.83
2019-03-31T01:24:22.176Z,71.59
2019-03-31T01:25:21.875Z,70.87
2019-03-31T01:26:21.850Z,70.57
2019-03-31T01:27:21.844Z,70.26
2019-03-31T01:28:21.826Z,70.84
2019-03-31T01:29:22.153Z,70.33
2019-03-31T01:30:21.827Z,70.33
2019-03-31T01:31:21.829Z,69.92
2019-03-31T01:32:21.947Z,69.82
2019-03-31T01:33:21.778Z,69.79
2019-03-31T01:34:21.767Z,69.71
2019-03-31T01:35:21.753Z,70.40
2019-03-31T01:36:21.747Z,69.58
2019-03-31T01:37:21.768Z,69.38
2019-03-31T01:38:21.863Z,69.38
2019-03-31T01:39:21.710Z,69.27
2019-03-31T01:40:21.708Z,69.07
2019-03-31T01:41:21.811Z,69.17
2019-03-31T01:42:21.683Z,69.68
2019-03-31T01:43:21.658Z,69.79
2019-03-31T01:44:21.651Z,69.89
2019-03-31T01:45:21.654Z,69.89
2019-03-31T01:46:21.768Z,69.99
2019-03-31T01:47:21.784Z,69.07
2019-03-31T01:48:21.679Z,69.38
2019-03-31T01:49:21.679Z,68.97
2019-03-31T01:50:22.998Z,69.27
2019-03-31T01:51:21.578Z,69.07
2019-03-31T01:52:21.748Z,69.07
2019-03-31T01:53:21.578Z,70.09
2019-03-31T01:54:21.555Z,69.68
2019-03-31T01:55:21.537Z,69.68
2019-03-31T01:56:21.640Z,70.20
2019-03-31T01:57:21.813Z,69.68
2019-03-31T01:58:21.507Z,70.20
2019-03-31T01:59:21.514Z,70.50
2019-03-31T02:00:21.483Z,70.29
2019-03-31T02:01:21.505Z,70.74
2019-03-31T02:02:21.454Z,70.33
2019-03-31T02:03:21.826Z,70.94
2019-03-31T02:04:21.442Z,70.84
2019-03-31T02:05:21.455Z,70.94
2019-03-31T02:06:21.755Z,70.74
2019-03-31T02:07:21.395Z,70.43
2019-03-31T02:08:21.644Z,70.84
2019-03-31T02:09:29.168Z,70.77
2019-03-31T02:10:21.382Z,70.87
2019-03-31T02:11:21.356Z,71.39
2019-03-31T02:12:21.345Z,71.59
2019-03-31T02:13:21.339Z,71.49
2019-03-31T02:14:21.507Z,71.28
2019-03-31T02:15:21.315Z,71.49
2019-03-31T02:16:21.340Z,71.80
2019-03-31T02:17:21.299Z,71.59
2019-03-31T02:18:21.354Z,71.69
2019-03-31T02:19:21.270Z,71.80
2019-03-31T02:20:21.451Z,72.03
2019-03-31T02:21:21.251Z,72.24
2019-03-31T02:22:21.243Z,72.11
2019-03-31T02:23:21.430Z,72.41
2019-03-31T02:24:21.814Z,72.52
2019-03-31T02:25:21.221Z,72.44
2019-03-31T02:26:21.291Z,72.41
2019-03-31T02:27:21.195Z,72.65
2019-03-31T02:28:21.175Z,72.72
2019-03-31T02:29:21.184Z,73.27
2019-03-31T02:30:21.523Z,73.27
2019-03-31T02:31:21.244Z,73.06
2019-03-31T02:32:24.094Z,72.96
2019-03-31T02:33:21.125Z,72.75
2019-03-31T02:34:21.111Z,72.96
2019-03-31T02:35:21.162Z,72.86
2019-03-31T02:36:21.077Z,73.16
2019-03-31T02:37:21.312Z,73.47
2019-03-31T02:38:21.064Z,72.86
2019-03-31T02:39:21.292Z,73.36
2019-03-31T02:40:21.042Z,72.96
2019-03-31T02:41:21.084Z,72.75
2019-03-31T02:42:21.304Z,73.88
2019-03-31T02:43:21.275Z,73.78
2019-03-31T02:44:21.002Z,74.39
2019-03-31T02:45:20.988Z,74.53
2019-03-31T02:46:21.201Z,74.43
2019-03-31T02:47:20.961Z,74.43
2019-03-31T02:48:21.170Z,74.84
2019-03-31T02:49:21.021Z,74.84
2019-03-31T02:50:21.149Z,74.94
2019-03-31T02:51:22.225Z,74.84
2019-03-31T02:52:20.946Z,75.15
2019-03-31T02:53:20.889Z,75.24
2019-03-31T02:54:21.262Z,75.45
2019-03-31T02:55:20.879Z,75.49
2019-03-31T02:56:20.866Z,75.59
2019-03-31T02:57:20.854Z,75.49
2019-03-31T02:58:20.844Z,75.28
2019-03-31T02:59:21.030Z,75.38
2019-03-31T03:00:20.924Z,74.98
2019-03-31T03:01:20.825Z,75.59
2019-03-31T03:02:20.831Z,75.69
2019-03-31T03:03:20.790Z,75.69
2019-03-31T03:04:20.887Z,75.49
2019-03-31T03:05:21.934Z,75.69
2019-03-31T03:06:20.762Z,76.51
2019-03-31T03:07:20.777Z,76.62
2019-03-31T03:08:20.731Z,76.72
2019-03-31T03:09:21.202Z,76.72
2019-03-31T03:10:21.028Z,76.41
2019-03-31T03:11:20.742Z,76.31
2019-03-31T03:12:20.682Z,76.20
2019-03-31T03:13:20.673Z,76.20
2019-03-31T03:14:20.814Z,76.31
2019-03-31T03:15:20.770Z,76.65
2019-03-31T03:16:20.639Z,76.75
2019-03-31T03:17:20.629Z,76.20
2019-03-31T03:18:20.617Z,76.86
2019-03-31T03:19:20.797Z,76.41
2019-03-31T03:20:20.608Z,76.62
2019-03-31T03:21:24.072Z,76.55
2019-03-31T03:22:20.687Z,76.55
2019-03-31T03:23:20.702Z,76.45
2019-03-31T03:24:20.732Z,76.51
2019-03-31T03:25:20.749Z,77.03
2019-03-31T03:26:20.533Z,76.65
2019-03-31T03:27:20.644Z,77.26
2019-03-31T03:28:20.555Z,76.55
2019-03-31T03:29:20.503Z,76.92
2019-03-31T03:30:20.589Z,76.96
2019-03-31T03:31:20.812Z,76.62
2019-03-31T03:32:20.471Z,76.65
2019-03-31T03:33:20.653Z,76.96
2019-03-31T03:34:20.443Z,77.13
2019-03-31T03:35:20.437Z,77.17
2019-03-31T03:36:20.447Z,77.17
2019-03-31T03:37:20.712Z,76.96
2019-03-31T03:38:20.405Z,76.75
2019-03-31T03:39:20.448Z,76.96
2019-03-31T03:40:20.436Z,77.06
2019-03-31T03:41:20.456Z,76.65
2019-03-31T03:42:20.819Z,76.65
2019-03-31T03:43:20.854Z,76.86
2019-03-31T03:44:20.426Z,76.75
2019-03-31T03:45:20.620Z,76.79
2019-03-31T03:46:20.392Z,76.68
2019-03-31T03:47:20.411Z,76.58
2019-03-31T03:48:20.509Z,76.68
2019-03-31T03:49:20.282Z,76.68
2019-03-31T03:50:20.278Z,77.10
2019-03-31T03:51:20.342Z,77.03
2019-03-31T03:52:20.268Z,77.30
2019-03-31T03:53:20.233Z,77.44
2019-03-31T03:54:20.475Z,77.40
2019-03-31T03:55:20.227Z,77.20
2019-03-31T03:56:20.203Z,77.75
2019-03-31T03:57:20.201Z,77.34
2019-03-31T03:58:20.289Z,77.61
2019-03-31T03:59:20.423Z,77.40
2019-03-31T04:00:20.165Z,77.30
2019-03-31T04:01:20.150Z,77.44
2019-03-31T04:02:20.159Z,77.40
2019-03-31T04:03:30.155Z,77.55
2019-03-31T04:04:21.302Z,77.65
2019-03-31T04:05:20.103Z,77.75
2019-03-31T04:06:20.088Z,78.27
2019-03-31T04:07:20.512Z,78.16
2019-03-31T04:08:20.141Z,78.47
2019-03-31T04:09:20.069Z,78.36
2019-03-31T04:10:20.162Z,78.57
2019-03-31T04:11:21.505Z,78.16
2019-03-31T04:12:20.337Z,78.67
2019-03-31T04:13:20.037Z,78.78
2019-03-31T04:14:20.043Z,79.08
2019-03-31T04:15:20.038Z,78.98
2019-03-31T04:16:20.139Z,79.08
2019-03-31T04:17:20.371Z,79.08
2019-03-31T04:18:20.000Z,79.19
2019-03-31T04:19:19.948Z,79.70
2019-03-31T04:20:19.949Z,79.39
2019-03-31T04:21:19.940Z,79.39
2019-03-31T04:22:19.948Z,78.98
2019-03-31T04:23:20.042Z,79.49
2019-03-31T04:24:19.903Z,79.08
2019-03-31T04:25:19.894Z,79.60
2019-03-31T04:26:20.016Z,79.39
2019-03-31T04:27:19.883Z,79.29
2019-03-31T04:28:21.812Z,79.29
2019-03-31T04:29:19.884Z,79.39
2019-03-31T04:30:19.853Z,79.39
2019-03-31T04:31:19.840Z,79.70
2019-03-31T04:32:19.846Z,79.19
2019-03-31T04:33:19.941Z,79.08
2019-03-31T04:34:20.183Z,79.39
2019-03-31T04:35:19.773Z,79.70
2019-03-31T04:36:19.758Z,79.08
2019-03-31T04:37:19.754Z,79.60
2019-03-31T04:38:19.753Z,79.80
2019-03-31T04:39:20.013Z,80.15
2019-03-31T04:40:19.719Z,79.80
2019-03-31T04:41:19.709Z,79.80
2019-03-31T04:42:19.693Z,79.80
2019-03-31T04:43:19.698Z,80.15
2019-03-31T04:44:19.673Z,80.35
2019-03-31T04:45:19.775Z,80.46
2019-03-31T04:46:19.654Z,80.66
2019-03-31T04:47:19.710Z,80.46
2019-03-31T04:48:19.623Z,80.97
2019-03-31T04:49:19.619Z,80.87
2019-03-31T04:50:19.727Z,80.87
2019-03-31T04:51:19.593Z,80.87
2019-03-31T04:52:19.585Z,80.80
2019-03-31T04:53:19.584Z,81.07
2019-03-31T04:54:19.557Z,81.01
2019-03-31T04:55:19.551Z,80.87
2019-03-31T04:56:19.856Z,80.87
2019-03-31T04:57:19.649Z,80.97
2019-03-31T04:58:19.516Z,80.97
2019-03-31T04:59:19.506Z,81.07
2019-03-31T05:00:19.499Z,80.77
2019-03-31T05:01:19.825Z,80.56
2019-03-31T05:02:19.483Z,80.77
2019-03-31T05:03:19.814Z,80.77
2019-03-31T05:04:19.517Z,80.46
2019-03-31T05:05:19.462Z,80.35
2019-03-31T05:06:19.432Z,80.46
2019-03-31T05:07:19.547Z,80.46
2019-03-31T05:08:19.734Z,80.35
2019-03-31T05:09:19.397Z,80.46
2019-03-31T05:10:19.379Z,80.35
2019-03-31T05:11:19.375Z,80.15
2019-03-31T05:12:19.373Z,80.15
2019-03-31T05:13:19.381Z,80.15
2019-03-31T05:14:19.473Z,80.01
2019-03-31T05:15:19.325Z,79.94
2019-03-31T05:16:19.314Z,79.74
2019-03-31T05:17:26.410Z,80.11
2019-03-31T05:18:19.294Z,79.53
2019-03-31T05:19:19.280Z,80.01
2019-03-31T05:20:19.419Z,79.19
2019-03-31T05:21:19.455Z,79.91
2019-03-31T05:22:19.250Z,79.70
2019-03-31T05:23:19.292Z,79.39
2019-03-31T05:24:19.244Z,79.29
2019-03-31T05:25:19.218Z,79.29
2019-03-31T05:26:19.330Z,79.19
2019-03-31T05:27:19.197Z,78.98
2019-03-31T05:28:19.200Z,78.88
2019-03-31T05:29:19.191Z,78.57
2019-03-31T05:30:19.362Z,78.27
2019-03-31T05:31:19.160Z,78.06
2019-03-31T05:32:19.138Z,78.27
2019-03-31T05:33:19.135Z,78.57
2019-03-31T05:34:19.627Z,78.06
2019-03-31T05:35:19.148Z,77.61
2019-03-31T05:36:19.245Z,77.20
2019-03-31T05:37:19.096Z,77.00
2019-03-31T05:38:19.072Z,77.00
2019-03-31T05:39:19.069Z,76.79
2019-03-31T05:40:19.069Z,77.00
2019-03-31T05:41:19.042Z,76.89
2019-03-31T05:42:19.470Z,76.24
2019-03-31T05:43:19.012Z,76.48
2019-03-31T05:44:19.698Z,75.83
2019-03-31T05:45:19.265Z,75.18
2019-03-31T05:46:18.994Z,75.21
2019-03-31T05:47:19.299Z,75.38
2019-03-31T05:48:18.957Z,75.32
2019-03-31T05:49:18.958Z,74.98
2019-03-31T05:50:18.943Z,74.60
2019-03-31T05:51:18.938Z,74.66
2019-03-31T05:52:19.039Z,74.87
2019-03-31T05:53:18.971Z,75.08
2019-03-31T05:54:19.025Z,74.66
2019-03-31T05:55:19.104Z,74.80
2019-03-31T05:56:18.892Z,75.52
2019-03-31T05:57:18.864Z,75.21
2019-03-31T05:58:18.981Z,75.21
2019-03-31T05:59:18.847Z,75.42
2019-03-31T06:00:18.844Z,75.62
2019-03-31T06:01:18.826Z,75.32
2019-03-31T06:02:19.005Z,75.45
2019-03-31T06:03:18.921Z,76.07
2019-03-31T06:04:32.310Z,75.56
2019-03-31T06:05:19.950Z,75.15
2019-03-31T06:06:18.770Z,75.35
2019-03-31T06:07:18.756Z,75.45
2019-03-31T06:08:18.898Z,75.66
2019-03-31T06:09:18.999Z,75.35
2019-03-31T06:10:31.121Z,74.94
2019-03-31T06:11:18.706Z,74.84
2019-03-31T06:12:18.719Z,74.63
2019-03-31T06:13:18.713Z,74.74
2019-03-31T06:14:19.005Z,74.43
2019-03-31T06:15:18.827Z,74.29
2019-03-31T06:16:18.663Z,74.70
2019-03-31T06:17:18.647Z,73.47
2019-03-31T06:18:18.631Z,72.96
2019-03-31T06:19:18.636Z,73.27
2019-03-31T06:20:18.617Z,72.96
2019-03-31T06:21:18.780Z,72.96
2019-03-31T06:22:18.586Z,73.74
2019-03-31T06:23:18.629Z,72.82
2019-03-31T06:24:18.573Z,72.61
2019-03-31T06:25:18.685Z,72.17
2019-03-31T06:26:22.066Z,71.45
2019-03-31T06:27:19.619Z,70.81
2019-03-31T06:28:18.855Z,70.81
2019-03-31T06:29:18.569Z,69.65
2019-03-31T06:30:20.023Z,69.89
2019-03-31T06:31:19.978Z,70.36
2019-03-31T06:32:18.594Z,68.69
2019-03-31T06:33:18.485Z,67.10
2019-03-31T06:34:19.041Z,62.59
2019-03-31T06:35:18.454Z,59.73
2019-03-31T06:36:18.458Z,56.19
2019-03-31T06:37:18.988Z,55.15
2019-03-31T06:38:18.466Z,53.47
2019-03-31T06:39:18.466Z,51.47
2019-03-31T06:40:18.603Z,50.63
2019-03-31T06:41:18.762Z,49.38
2019-03-31T06:42:18.974Z,48.54
2019-03-31T06:43:18.391Z,48.32
2019-03-31T06:44:18.519Z,47.69
2019-03-31T06:45:18.419Z,46.56
2019-03-31T06:46:28.155Z,46.21
2019-03-31T06:47:18.411Z,44.87
2019-03-31T06:48:20.824Z,43.82
2019-03-31T06:49:19.967Z,42.86
2019-03-31T06:50:18.294Z,41.51
2019-03-31T06:51:18.565Z,40.17
2019-03-31T06:52:18.261Z,39.75
2019-03-31T06:53:18.252Z,39.03
2019-03-31T06:54:23.310Z,37.98
2019-03-31T06:55:18.251Z,37.77
2019-03-31T06:56:19.130Z,37.15
2019-03-31T06:57:18.498Z,36.65
2019-03-31T06:58:18.198Z,36.43
2019-03-31T06:59:18.449Z,35.63
2019-03-31T07:00:18.635Z,35.73
2019-03-31T07:01:18.216Z,35.73
2019-03-31T07:02:18.156Z,36.01
2019-03-31T07:03:18.580Z,34.99
2019-03-31T07:04:18.283Z,34.69
2019-03-31T07:05:18.136Z,33.66
2019-03-31T07:06:18.166Z,33.63
2019-03-31T07:07:18.100Z,32.53
2019-03-31T07:08:18.087Z,33.03
2019-03-31T07:09:18.075Z,33.78
2019-03-31T07:10:18.060Z,33.45
2019-03-31T07:11:18.232Z,32.65
2019-03-31T07:12:18.057Z,34.24
2019-03-31T07:13:18.111Z,34.73
2019-03-31T07:14:18.011Z,34.21
2019-03-31T07:15:18.010Z,37.13
2019-03-31T07:16:18.065Z,38.81
2019-03-31T07:17:21.612Z,40.91
2019-03-31T07:18:17.990Z,42.92
2019-03-31T07:19:17.970Z,41.89
2019-03-31T07:20:18.071Z,38.04
2019-03-31T07:21:18.961Z,35.10
2019-03-31T07:22:17.941Z,32.95
2019-03-31T07:23:18.051Z,32.93
2019-03-31T07:24:17.927Z,31.59
2019-03-31T07:25:17.903Z,30.16
2019-03-31T07:26:17.881Z,29.65
2019-03-31T07:27:17.879Z,29.04
2019-03-31T07:28:17.893Z,29.44
2019-03-31T07:29:17.979Z,29.16
2019-03-31T07:30:17.841Z,30.38
2019-03-31T07:31:17.833Z,31.12
2019-03-31T07:32:17.836Z,32.21
2019-03-31T07:33:18.021Z,34.66
2019-03-31T07:34:17.839Z,35.61
2019-03-31T07:35:18.999Z,37.21
2019-03-31T07:36:17.769Z,38.87
2019-03-31T07:37:17.775Z,41.27
2019-03-31T07:38:17.925Z,43.34
2019-03-31T07:39:18.183Z,44.90
2019-03-31T07:40:17.920Z,46.41
2019-03-31T07:41:17.736Z,48.50
2019-03-31T07:42:18.721Z,49.03
2019-03-31T07:43:17.838Z,50.48
2019-03-31T07:44:17.829Z,51.34
2019-03-31T07:45:17.692Z,50.45
2019-03-31T07:46:17.794Z,50.90
2019-03-31T07:47:17.670Z,52.58
2019-03-31T07:48:19.275Z,53.42
2019-03-31T07:49:17.635Z,53.72
2019-03-31T07:50:17.914Z,54.46
2019-03-31T07:51:17.810Z,55.61
2019-03-31T07:52:17.619Z,55.94
2019-03-31T07:53:18.519Z,56.96
2019-03-31T07:54:17.577Z,56.27
2019-03-31T07:55:17.572Z,57.83
2019-03-31T07:56:17.552Z,57.93
2019-03-31T07:57:17.849Z,57.70
2019-03-31T07:58:17.533Z,57.39
2019-03-31T07:59:17.553Z,57.50
2019-03-31T08:00:17.532Z,57.57
2019-03-31T08:01:17.779Z,57.29
2019-03-31T08:02:17.837Z,56.96
2019-03-31T08:03:17.791Z,57.78
2019-03-31T08:04:17.528Z,57.47
2019-03-31T08:05:17.516Z,57.47
2019-03-31T08:06:17.458Z,57.60
2019-03-31T08:07:17.598Z,57.93
2019-03-31T08:08:17.850Z,57.83
2019-03-31T08:09:17.431Z,57.93
2019-03-31T08:10:17.624Z,57.93
2019-03-31T08:11:17.636Z,57.93
2019-03-31T08:12:17.558Z,57.75
2019-03-31T08:13:17.483Z,58.57
2019-03-31T08:14:18.016Z,59.08
2019-03-31T08:15:17.391Z,59.08
2019-03-31T08:16:17.332Z,59.59
2019-03-31T08:17:17.411Z,59.52
2019-03-31T08:18:17.515Z,59.89
2019-03-31T08:19:20.731Z,60.03
2019-03-31T08:20:17.512Z,60.23
2019-03-31T08:21:17.633Z,59.52
2019-03-31T08:22:17.524Z,60.53
2019-03-31T08:23:19.626Z,60.53
2019-03-31T08:24:17.497Z,60.74
2019-03-31T08:25:17.243Z,60.03
2019-03-31T08:26:17.228Z,60.23
2019-03-31T08:27:17.206Z,60.16
2019-03-31T08:28:17.226Z,60.67
2019-03-31T08:29:18.012Z,60.74
2019-03-31T08:30:17.349Z,60.26
2019-03-31T08:31:20.464Z,60.74
2019-03-31T08:32:17.352Z,60.57
2019-03-31T08:33:17.152Z,60.94
2019-03-31T08:34:17.232Z,60.13
2019-03-31T08:35:17.498Z,60.16
2019-03-31T08:36:17.544Z,60.26
2019-03-31T08:37:20.532Z,60.05
2019-03-31T08:38:17.394Z,55.30
2019-03-31T08:39:17.199Z,43.99
2019-03-31T08:40:31.644Z,36.53
2019-03-31T08:41:17.103Z,30.66
2019-03-31T08:42:17.036Z,29.94
2019-03-31T08:43:17.039Z,31.43
2019-03-31T08:44:17.360Z,34.16
2019-03-31T08:45:17.017Z,36.57
2019-03-31T08:46:17.014Z,38.65
2019-03-31T08:47:17.486Z,41.14
2019-03-31T08:48:17.025Z,43.24
2019-03-31T08:49:17.536Z,44.95
2019-03-31T08:50:16.985Z,47.42
2019-03-31T08:51:17.702Z,47.79
2019-03-31T08:52:16.937Z,48.55
2019-03-31T08:53:16.986Z,49.58
2019-03-31T08:54:16.999Z,50.52
2019-03-31T08:55:16.896Z,51.26
2019-03-31T08:56:17.249Z,51.36
2019-03-31T08:57:16.915Z,51.46
2019-03-31T08:58:17.819Z,51.87
2019-03-31T08:59:16.867Z,51.46
2019-03-31T09:00:16.847Z,51.03
2019-03-31T09:01:17.091Z,51.56
2019-03-31T09:02:16.820Z,51.26
2019-03-31T09:03:16.823Z,51.95
2019-03-31T09:04:16.797Z,51.64
2019-03-31T09:05:16.790Z,51.56
2019-03-31T09:06:16.788Z,51.06
2019-03-31T09:07:16.893Z,51.06
2019-03-31T09:08:16.748Z,51.87
2019-03-31T09:09:18.468Z,51.28
2019-03-31T09:10:16.734Z,51.79
2019-03-31T09:11:17.030Z,51.59
2019-03-31T09:12:16.989Z,51.18
2019-03-31T09:13:16.696Z,51.16
2019-03-31T09:14:16.685Z,51.77
2019-03-31T09:15:16.672Z,51.89
2019-03-31T09:16:16.668Z,51.89
2019-03-31T09:17:16.785Z,51.89
2019-03-31T09:18:16.657Z,52.53
2019-03-31T09:19:19.845Z,53.14
2019-03-31T09:20:16.624Z,53.16
2019-03-31T09:21:16.618Z,53.70
2019-03-31T09:22:16.615Z,54.00
2019-03-31T09:23:16.600Z,55.15
2019-03-31T09:24:16.632Z,55.18
2019-03-31T09:25:16.886Z,56.10
2019-03-31T09:26:16.786Z,56.84
2019-03-31T09:27:16.550Z,57.34
2019-03-31T09:28:21.303Z,57.24
2019-03-31T09:29:18.891Z,58.26
2019-03-31T09:30:16.912Z,58.29
2019-03-31T09:31:16.874Z,58.09
2019-03-31T09:32:16.732Z,57.78
2019-03-31T09:33:16.486Z,57.68
2019-03-31T09:34:16.471Z,58.62
2019-03-31T09:35:16.524Z,58.42
2019-03-31T09:36:16.974Z,58.93
2019-03-31T09:37:16.814Z,59.03
2019-03-31T09:38:16.502Z,59.14
2019-03-31T09:39:16.789Z,59.14
2019-03-31T09:40:16.474Z,59.64
2019-03-31T09:41:16.453Z,59.47
2019-03-31T09:42:16.467Z,59.47
2019-03-31T09:43:17.037Z,59.67
2019-03-31T09:44:16.442Z,59.80
2019-03-31T09:45:16.617Z,60.69
2019-03-31T09:46:18.204Z,60.39
2019-03-31T09:47:16.367Z,60.60
2019-03-31T09:48:19.412Z,59.78
2019-03-31T09:49:16.296Z,59.57
2019-03-31T09:50:17.598Z,59.44
2019-03-31T09:51:16.278Z,59.64
2019-03-31T09:52:16.910Z,59.34
2019-03-31T09:53:17.875Z,59.85
2019-03-31T09:54:16.255Z,60.77
2019-03-31T09:55:17.954Z,60.87
2019-03-31T09:56:16.398Z,60.97
2019-03-31T09:57:16.213Z,61.08
2019-03-31T09:58:16.306Z,60.87
2019-03-31T09:59:18.103Z,60.46
2019-03-31T10:00:16.209Z,59.55
2019-03-31T10:01:16.311Z,59.55
2019-03-31T10:02:16.238Z,59.55
2019-03-31T10:03:16.284Z,59.23
2019-03-31T10:04:16.678Z,59.34
2019-03-31T10:05:16.140Z,58.50
2019-03-31T10:06:29.286Z,57.57
2019-03-31T10:07:17.109Z,57.68
2019-03-31T10:08:16.088Z,56.76
2019-03-31T10:09:16.086Z,57.27
2019-03-31T10:10:16.718Z,55.54
2019-03-31T10:11:16.077Z,56.96
2019-03-31T10:12:17.041Z,56.89
2019-03-31T10:13:16.040Z,57.07
2019-03-31T10:14:17.950Z,57.17
2019-03-31T10:15:16.322Z,56.66
2019-03-31T10:16:16.070Z,57.24
2019-03-31T10:17:16.312Z,56.63
2019-03-31T10:18:18.293Z,56.02
2019-03-31T10:19:15.975Z,56.71
2019-03-31T10:20:15.962Z,56.60
2019-03-31T10:21:15.973Z,55.46
2019-03-31T10:22:15.933Z,54.00
2019-03-31T10:23:22.827Z,54.11
2019-03-31T10:24:17.051Z,54.00
2019-03-31T10:25:16.166Z,53.37
2019-03-31T10:26:20.945Z,53.34
2019-03-31T10:27:16.892Z,53.44
2019-03-31T10:28:15.863Z,52.61
2019-03-31T10:29:16.044Z,52.50
2019-03-31T10:30:15.840Z,51.87
2019-03-31T10:31:15.858Z,51.34
2019-03-31T10:32:15.833Z,50.62
2019-03-31T10:33:15.814Z,49.99
2019-03-31T10:34:16.072Z,49.16
2019-03-31T10:35:16.771Z,48.74
2019-03-31T10:36:15.787Z,44.54
2019-03-31T10:37:15.784Z,43.20
2019-03-31T10:38:15.768Z,42.61
2019-03-31T10:39:15.740Z,41.61
2019-03-31T10:40:15.736Z,42.35
2019-03-31T10:41:15.865Z,42.98
2019-03-31T10:42:15.730Z,43.81
2019-03-31T10:43:15.759Z,44.76
2019-03-31T10:44:15.686Z,45.62
2019-03-31T10:45:15.739Z,46.37
2019-03-31T10:46:15.672Z,47.53
2019-03-31T10:47:15.673Z,47.75
2019-03-31T10:48:20.793Z,47.55
2019-03-31T10:49:16.641Z,48.16
2019-03-31T10:50:15.616Z,48.06
2019-03-31T10:51:15.671Z,48.06
2019-03-31T10:52:15.596Z,48.19
2019-03-31T10:53:16.027Z,48.80
2019-03-31T10:54:15.586Z,48.49
2019-03-31T10:55:15.595Z,49.00
2019-03-31T10:56:15.565Z,48.49
2019-03-31T10:57:15.559Z,48.80
2019-03-31T10:58:16.259Z,48.16
2019-03-31T10:59:15.523Z,48.42
2019-03-31T11:00:15.508Z,47.71
2019-03-31T11:01:15.496Z,46.88
2019-03-31T11:02:15.863Z,46.53
2019-03-31T11:03:15.474Z,40.74
2019-03-31T11:04:15.630Z,38.27
2019-03-31T11:05:15.474Z,35.01
2019-03-31T11:06:15.503Z,33.36
2019-03-31T11:07:15.432Z,31.34
2019-03-31T11:08:15.424Z,28.05
2019-03-31T11:09:15.601Z,25.90
2019-03-31T11:10:15.824Z,23.54
2019-03-31T11:11:15.399Z,22.41
2019-03-31T11:12:15.382Z,21.50
2019-03-31T11:13:15.366Z,20.17
2019-03-31T11:14:15.528Z,19.88
2019-03-31T11:15:15.490Z,19.67
2019-03-31T11:16:15.343Z,19.16
2019-03-31T11:17:15.326Z,20.14
2019-03-31T11:18:15.330Z,18.74
2019-03-31T11:19:15.313Z,17.93
2019-03-31T11:20:15.464Z,16.15
2019-03-31T11:21:15.296Z,16.46
2019-03-31T11:22:15.292Z,16.44
2019-03-31T11:23:15.385Z,16.31
2019-03-31T11:24:15.260Z,14.73
2019-03-31T11:25:21.236Z,14.86
2019-03-31T11:26:16.642Z,17.28
2019-03-31T11:27:15.228Z,17.38
2019-03-31T11:28:15.213Z,17.68
2019-03-31T11:29:15.202Z,19.61
2019-03-31T11:30:16.221Z,20.17
2019-03-31T11:31:17.847Z,20.92
2019-03-31T11:32:15.473Z,22.77
2019-03-31T11:33:15.179Z,23.50
2019-03-31T11:34:15.150Z,25.05
2019-03-31T11:35:15.148Z,26.61
2019-03-31T11:36:15.132Z,28.03
2019-03-31T11:37:15.136Z,28.48
2019-03-31T11:38:15.494Z,29.71
2019-03-31T11:39:16.492Z,31.54
2019-03-31T11:40:15.227Z,31.76
2019-03-31T11:41:15.432Z,32.29
2019-03-31T11:42:15.076Z,33.01
2019-03-31T11:43:15.396Z,33.95
2019-03-31T11:44:15.034Z,35.70
2019-03-31T11:45:15.024Z,36.61
2019-03-31T11:46:15.206Z,37.02
2019-03-31T11:47:15.016Z,36.96
2019-03-31T11:48:15.287Z,37.20
2019-03-31T11:49:15.107Z,38.63
2019-03-31T11:50:14.977Z,38.65
2019-03-31T11:51:16.597Z,38.67
2019-03-31T11:52:14.968Z,39.70
2019-03-31T11:53:14.940Z,40.22
2019-03-31T11:54:14.942Z,39.62
2019-03-31T11:55:15.100Z,40.04
2019-03-31T11:56:14.916Z,40.45
2019-03-31T11:57:17.471Z,40.95
2019-03-31T11:58:14.899Z,40.53
2019-03-31T11:59:14.904Z,39.82
2019-03-31T12:00:14.866Z,39.28
2019-03-31T12:01:15.188Z,35.26
2019-03-31T12:02:26.317Z,30.97
2019-03-31T12:03:15.826Z,30.63
2019-03-31T12:04:14.838Z,31.37
2019-03-31T12:05:14.812Z,33.72
2019-03-31T12:06:14.827Z,32.32
2019-03-31T12:07:27.364Z,33.04
2019-03-31T12:08:15.956Z,30.78
2019-03-31T12:09:14.987Z,27.07
2019-03-31T12:10:14.771Z,25.70
2019-03-31T12:11:14.740Z,22.95
2019-03-31T12:12:16.966Z,22.13
2019-03-31T12:13:14.893Z,21.09
2019-03-31T12:14:14.793Z,19.60
2019-03-31T12:15:14.699Z,19.68
2019-03-31T12:16:14.752Z,18.58
2019-03-31T12:17:14.694Z,19.28
2019-03-31T12:18:14.672Z,18.88
2019-03-31T12:19:15.024Z,19.07
2019-03-31T12:20:14.648Z,19.26
2019-03-31T12:21:14.634Z,19.71
2019-03-31T12:22:14.622Z,20.46
2019-03-31T12:23:14.774Z,21.55
2019-03-31T12:24:14.600Z,21.43
2019-03-31T12:25:15.027Z,20.72
2019-03-31T12:26:14.671Z,18.82
2019-03-31T12:27:14.635Z,18.42
2019-03-31T12:28:14.566Z,18.80
2019-03-31T12:29:14.662Z,17.82
2019-03-31T12:30:14.541Z,18.41
2019-03-31T12:31:15.100Z,17.71
2019-03-31T12:32:14.521Z,16.32
2019-03-31T12:33:14.586Z,16.31
2019-03-31T12:34:14.504Z,16.49
2019-03-31T12:35:14.485Z,16.28
2019-03-31T12:36:14.889Z,15.58
2019-03-31T12:37:14.480Z,15.19
2019-03-31T12:38:14.477Z,15.56
2019-03-31T12:39:14.482Z,15.37
2019-03-31T12:40:15.464Z,15.28
2019-03-31T12:41:15.726Z,15.48
2019-03-31T12:42:14.479Z,15.48
2019-03-31T12:43:14.846Z,15.48
2019-03-31T12:44:14.481Z,15.48
2019-03-31T12:45:14.482Z,15.76
2019-03-31T12:46:14.802Z,16.33
2019-03-31T12:47:14.467Z,15.75
2019-03-31T12:48:14.953Z,16.33
2019-03-31T12:49:14.762Z,16.24
2019-03-31T12:50:14.350Z,16.43
2019-03-31T12:51:14.317Z,15.93
2019-03-31T12:52:14.306Z,17.66